ADDS METAR Data INFO
IDs: Format: Raw Decoded Include TAF

Data at: 2251 UTC 22 Jun 2018

KDXR 222153Z 12007KT 10SM CLR 22/12 A3002 RMK AO2 SLP161 T02170122
KDXR 222053Z 12008KT 10SM CLR 22/11 A3004 RMK AO2 SLP168 T02170111 58001
KDXR 221953Z 16008KT 120V200 10SM CLR 22/14 A3004 RMK AO2 SLP168 T02220139
KDXR 221853Z 15008KT 10SM CLR 23/13 A3005 RMK AO2 SLP171 T02280128
KDXR 221753Z 16010KT 10SM CLR 23/13 A3004 RMK AO2 SLP169 T02330133 10239 20172 50000
KDXR 221653Z 11007KT 080V150 10SM CLR 23/14 A3004 RMK AO2 SLP170 T02330139
KDXR 221553Z 11009KT 10SM CLR 23/13 A3004 RMK AO2 SLP171 T02280128
KDXR 221453Z 12007KT 090V160 10SM CLR 21/13 A3004 RMK AO2 SLP169 T02110128 51003
KDXR 221353Z 05005KT 10SM CLR 20/11 A3004 RMK AO2 SLP169 T02000111
KDXR 221253Z 05006KT 10SM CLR 18/09 A3004 RMK AO2 SLP168 T01830089
KDXR 221153Z 06006KT 10SM CLR 17/08 A3003 RMK AO2 SLP166 T01720083 10183 20161 51020
KDXR 221053Z 06007KT 10SM CLR 17/07 A3001 RMK AO2 SLP159 T01670072
KDXR 220953Z AUTO 06003KT 10SM BKN031 BKN044 17/08 A2999 RMK AO2 SLP152 T01670078
KDXR 220853Z AUTO 08003KT 10SM FEW040 17/08 A2997 RMK AO2 SLP145 T01670083 53011
KDXR 220753Z AUTO 05004KT 10SM CLR 18/16 A2995 RMK AO2 SLP137 T01780156
KDXR 220653Z AUTO 07003KT 10SM SCT008 BKN036 18/17 A2994 RMK AO2 SLP134 T01780172
KDXR 220650Z AUTO 07003KT 10SM SCT008 BKN036 18/17 A2994 RMK AO2
KDXR 220626Z AUTO 00000KT 10SM BKN009 OVC029 18/17 A2994 RMK AO2 T01780167
KDXR 220618Z AUTO 00000KT 10SM FEW011 BKN027 18/17 A2993 RMK AO2 T01780172
KDXR 220553Z AUTO 00000KT 10SM CLR 18/16 A2992 RMK AO2 SLP128 T01780161 10250 20172 51012
KDXR 220453Z AUTO 07003KT 10SM CLR 18/17 A2991 RMK AO2 SLP125 T01830167 402890183
KDXR 220353Z AUTO 00000KT 10SM CLR 19/17 A2990 RMK AO2 SLP121 T01940167
KDXR 220253Z AUTO 00000KT 10SM BKN080 20/16 A2989 RMK AO2 SLP116 T02000156 51025
KDXR 220153Z 24003KT 10SM BKN080 21/15 A2987 RMK AO2 SLP110 T02060150
KDXR 220053Z VRB03KT 10SM SCT080 24/13 A2983 RMK AO2 SLP098 T02390133
KDXR 212353Z 35006KT 10SM CLR 25/13 A2981 RMK AO2 SLP090 T02500133 10289 20250 53015
KDXR 212253Z 36005KT 10SM FEW100 26/13 A2979 RMK AO2 SLP084 T02610128
KDXR 212153Z 36009KT 10SM CLR 28/13 A2978 RMK AO2 SLP079 T02830128
KDXR 212053Z 35004KT 10SM CLR 28/13 A2977 RMK AO2 SLP076 T02780128 56005
KDXR 211953Z 33009G16KT 10SM FEW065 28/13 A2977 RMK AO2 SLP076 T02830128
KDXR 211853Z 00000KT 10SM SCT060 28/13 A2977 RMK AO2 SLP077 T02780133
KDXR 211753Z 00000KT 10SM FEW060 27/13 A2978 RMK AO2 SLP081 T02720128 10272 20194 58008
KDXR 211653Z 08007KT 10SM CLR 26/14 A2979 RMK AO2 SLP083 T02560139
KDXR 211553Z 04007KT 10SM FEW050 25/14 A2980 RMK AO2 SLP087 T02500144
KDXR 211453Z 03006KT 10SM CLR 24/15 A2981 RMK AO2 SLP089 T02440150 51005
KDXR 211353Z 32006KT 10SM CLR 22/16 A2980 RMK AO2 SLP087 T02220161
KDXR 211253Z 25004KT 10SM BKN100 21/18 A2980 RMK AO2 SLP088 T02060178
KDXR 211153Z 00000KT 10SM FEW007 BKN120 19/18 A2979 RMK AO2 SLP085 60003 70014 T01940183 10194 20183 51007
KDXR 211125Z 00000KT 10SM FEW008 BKN110 19/18 A2979 RMK AO2 T01890183
KDXR 211053Z 00000KT 10SM BKN090 18/18 A2979 RMK AO2 SLP084 T01830178